sensor_id;sensor_type;location;lat;lon;timestamp;P1;durP1;ratioP1;P2;durP2;ratioP2
13872;SDS011;7006;51.494;11.964;2023-03-24T00:01:53;3.40;;;2.73;;
13872;SDS011;7006;51.494;11.964;2023-03-24T00:04:22;4.23;;;2.63;;
13872;SDS011;7006;51.494;11.964;2023-03-24T00:06:51;2.87;;;2.30;;
13872;SDS011;7006;51.494;11.964;2023-03-24T00:09:20;3.07;;;2.50;;
13872;SDS011;7006;51.494;11.964;2023-03-24T00:11:48;3.53;;;2.80;;
13872;SDS011;7006;51.494;11.964;2023-03-24T00:14:17;3.13;;;2.40;;
13872;SDS011;7006;51.494;11.964;2023-03-24T00:16:46;3.57;;;2.60;;
13872;SDS011;7006;51.494;11.964;2023-03-24T00:19:16;3.73;;;2.60;;
13872;SDS011;7006;51.494;11.964;2023-03-24T00:21:46;3.13;;;2.60;;
13872;SDS011;7006;51.494;11.964;2023-03-24T00:24:14;4.30;;;3.20;;
13872;SDS011;7006;51.494;11.964;2023-03-24T00:26:44;6.93;;;3.10;;
13872;SDS011;7006;51.494;11.964;2023-03-24T00:29:12;3.63;;;2.50;;
13872;SDS011;7006;51.494;11.964;2023-03-24T00:31:40;3.00;;;2.47;;
13872;SDS011;7006;51.494;11.964;2023-03-24T00:34:09;2.97;;;2.67;;
13872;SDS011;7006;51.494;11.964;2023-03-24T00:36:40;5.40;;;2.83;;
13872;SDS011;7006;51.494;11.964;2023-03-24T00:39:08;3.97;;;2.80;;
13872;SDS011;7006;51.494;11.964;2023-03-24T00:41:36;3.40;;;3.10;;
13872;SDS011;7006;51.494;11.964;2023-03-24T00:44:04;3.50;;;2.70;;
13872;SDS011;7006;51.494;11.964;2023-03-24T00:46:33;3.30;;;3.00;;
13872;SDS011;7006;51.494;11.964;2023-03-24T00:49:04;4.57;;;3.83;;
13872;SDS011;7006;51.494;11.964;2023-03-24T00:51:36;5.37;;;4.03;;
13872;SDS011;7006;51.494;11.964;2023-03-24T00:54:08;3.50;;;3.20;;
13872;SDS011;7006;51.494;11.964;2023-03-24T00:56:37;4.57;;;3.80;;
13872;SDS011;7006;51.494;11.964;2023-03-24T00:59:07;3.80;;;3.30;;
13872;SDS011;7006;51.494;11.964;2023-03-24T01:01:38;3.90;;;3.27;;
13872;SDS011;7006;51.494;11.964;2023-03-24T01:04:07;3.30;;;2.90;;
13872;SDS011;7006;51.494;11.964;2023-03-24T01:06:36;4.57;;;3.43;;
13872;SDS011;7006;51.494;11.964;2023-03-24T01:09:07;4.63;;;3.50;;
13872;SDS011;7006;51.494;11.964;2023-03-24T01:11:37;5.07;;;3.60;;
13872;SDS011;7006;51.494;11.964;2023-03-24T01:14:05;5.73;;;3.27;;
13872;SDS011;7006;51.494;11.964;2023-03-24T01:16:33;4.80;;;3.50;;
13872;SDS011;7006;51.494;11.964;2023-03-24T01:19:02;4.20;;;3.23;;
13872;SDS011;7006;51.494;11.964;2023-03-24T01:21:30;4.10;;;3.50;;
13872;SDS011;7006;51.494;11.964;2023-03-24T01:24:01;4.33;;;3.50;;
13872;SDS011;7006;51.494;11.964;2023-03-24T01:26:32;4.50;;;3.77;;
13872;SDS011;7006;51.494;11.964;2023-03-24T01:29:00;4.57;;;3.50;;
13872;SDS011;7006;51.494;11.964;2023-03-24T01:31:28;4.83;;;3.37;;
13872;SDS011;7006;51.494;11.964;2023-03-24T01:33:56;4.43;;;3.30;;
13872;SDS011;7006;51.494;11.964;2023-03-24T01:36:25;4.77;;;3.50;;
13872;SDS011;7006;51.494;11.964;2023-03-24T01:38:53;5.27;;;3.90;;
13872;SDS011;7006;51.494;11.964;2023-03-24T01:41:22;4.87;;;3.50;;
13872;SDS011;7006;51.494;11.964;2023-03-24T01:43:53;4.97;;;4.13;;
13872;SDS011;7006;51.494;11.964;2023-03-24T01:46:21;4.27;;;3.70;;
13872;SDS011;7006;51.494;11.964;2023-03-24T01:48:51;5.30;;;3.93;;
13872;SDS011;7006;51.494;11.964;2023-03-24T01:51:20;5.77;;;3.97;;
13872;SDS011;7006;51.494;11.964;2023-03-24T01:53:50;6.37;;;4.20;;
13872;SDS011;7006;51.494;11.964;2023-03-24T01:56:20;5.33;;;4.70;;
13872;SDS011;7006;51.494;11.964;2023-03-24T01:58:49;7.23;;;4.47;;
13872;SDS011;7006;51.494;11.964;2023-03-24T02:01:21;7.40;;;4.40;;
13872;SDS011;7006;51.494;11.964;2023-03-24T02:03:50;5.07;;;4.37;;
13872;SDS011;7006;51.494;11.964;2023-03-24T02:06:19;5.23;;;4.20;;
13872;SDS011;7006;51.494;11.964;2023-03-24T02:08:50;5.27;;;4.57;;
13872;SDS011;7006;51.494;11.964;2023-03-24T02:11:19;6.40;;;4.27;;
13872;SDS011;7006;51.494;11.964;2023-03-24T02:13:48;6.07;;;5.00;;
13872;SDS011;7006;51.494;11.964;2023-03-24T02:24:56;6.60;;;4.80;;
13872;SDS011;7006;51.494;11.964;2023-03-24T02:27:37;5.23;;;4.73;;
13872;SDS011;7006;51.494;11.964;2023-03-24T02:30:25;8.20;;;5.40;;
13872;SDS011;7006;51.494;11.964;2023-03-24T02:33:01;7.47;;;5.80;;
13872;SDS011;7006;51.494;11.964;2023-03-24T02:41:12;7.30;;;6.47;;
13872;SDS011;7006;51.494;11.964;2023-03-24T02:43:45;6.30;;;5.70;;
13872;SDS011;7006;51.494;11.964;2023-03-24T02:46:17;10.67;;;7.70;;
13872;SDS011;7006;51.494;11.964;2023-03-24T02:48:52;8.17;;;6.60;;
13872;SDS011;7006;51.494;11.964;2023-03-24T02:51:25;7.90;;;6.73;;
13872;SDS011;7006;51.494;11.964;2023-03-24T02:53:56;10.90;;;6.90;;
13872;SDS011;7006;51.494;11.964;2023-03-24T02:56:30;7.73;;;6.93;;
13872;SDS011;7006;51.494;11.964;2023-03-24T02:59:01;8.60;;;6.50;;
13872;SDS011;7006;51.494;11.964;2023-03-24T03:01:32;7.50;;;6.70;;
13872;SDS011;7006;51.494;11.964;2023-03-24T03:04:02;8.20;;;7.33;;
13872;SDS011;7006;51.494;11.964;2023-03-24T03:06:32;8.57;;;7.57;;
13872;SDS011;7006;51.494;11.964;2023-03-24T03:09:05;8.50;;;7.23;;
13872;SDS011;7006;51.494;11.964;2023-03-24T03:11:36;8.70;;;7.07;;
13872;SDS011;7006;51.494;11.964;2023-03-24T03:14:05;10.80;;;7.73;;
13872;SDS011;7006;51.494;11.964;2023-03-24T03:16:37;7.27;;;6.47;;
13872;SDS011;7006;51.494;11.964;2023-03-24T03:19:10;7.97;;;7.10;;
13872;SDS011;7006;51.494;11.964;2023-03-24T03:21:42;8.87;;;7.37;;
13872;SDS011;7006;51.494;11.964;2023-03-24T03:24:12;7.93;;;6.70;;
13872;SDS011;7006;51.494;11.964;2023-03-24T03:26:44;8.70;;;6.80;;
13872;SDS011;7006;51.494;11.964;2023-03-24T03:29:14;10.60;;;7.60;;
13872;SDS011;7006;51.494;11.964;2023-03-24T03:31:44;7.10;;;6.40;;
13872;SDS011;7006;51.494;11.964;2023-03-24T03:34:16;7.47;;;6.30;;
13872;SDS011;7006;51.494;11.964;2023-03-24T03:36:48;7.47;;;6.43;;
13872;SDS011;7006;51.494;11.964;2023-03-24T03:39:18;7.47;;;6.77;;
13872;SDS011;7006;51.494;11.964;2023-03-24T03:41:50;8.50;;;7.40;;
13872;SDS011;7006;51.494;11.964;2023-03-24T03:44:19;8.13;;;6.40;;
13872;SDS011;7006;51.494;11.964;2023-03-24T03:46:47;6.63;;;5.93;;
13872;SDS011;7006;51.494;11.964;2023-03-24T03:49:15;7.10;;;6.13;;
13872;SDS011;7006;51.494;11.964;2023-03-24T03:51:43;7.43;;;6.40;;
13872;SDS011;7006;51.494;11.964;2023-03-24T03:54:12;7.90;;;6.60;;
13872;SDS011;7006;51.494;11.964;2023-03-24T03:56:41;9.03;;;6.90;;
13872;SDS011;7006;51.494;11.964;2023-03-24T03:59:24;6.80;;;6.10;;
13872;SDS011;7006;51.494;11.964;2023-03-24T04:01:52;7.97;;;6.47;;
13872;SDS011;7006;51.494;11.964;2023-03-24T04:04:27;6.93;;;6.23;;
13872;SDS011;7006;51.494;11.964;2023-03-24T04:07:02;6.30;;;5.13;;
13872;SDS011;7006;51.494;11.964;2023-03-24T04:09:36;7.17;;;6.40;;
13872;SDS011;7006;51.494;11.964;2023-03-24T04:12:10;7.00;;;6.10;;
13872;SDS011;7006;51.494;11.964;2023-03-24T04:14:53;7.33;;;6.60;;
13872;SDS011;7006;51.494;11.964;2023-03-24T04:17:29;9.00;;;6.73;;
13872;SDS011;7006;51.494;11.964;2023-03-24T04:20:02;7.70;;;6.27;;
13872;SDS011;7006;51.494;11.964;2023-03-24T04:22:36;7.63;;;6.13;;
13872;SDS011;7006;51.494;11.964;2023-03-24T04:25:09;9.63;;;7.30;;
13872;SDS011;7006;51.494;11.964;2023-03-24T04:27:42;10.17;;;8.13;;
13872;SDS011;7006;51.494;11.964;2023-03-24T04:30:16;10.60;;;8.97;;
13872;SDS011;7006;51.494;11.964;2023-03-24T04:32:48;10.80;;;8.30;;
13872;SDS011;7006;51.494;11.964;2023-03-24T04:35:19;9.70;;;8.67;;
13872;SDS011;7006;51.494;11.964;2023-03-24T04:37:50;10.73;;;8.40;;
13872;SDS011;7006;51.494;11.964;2023-03-24T04:40:19;10.37;;;8.83;;
13872;SDS011;7006;51.494;11.964;2023-03-24T04:42:48;9.47;;;8.10;;
13872;SDS011;7006;51.494;11.964;2023-03-24T04:45:20;11.63;;;6.43;;
13872;SDS011;7006;51.494;11.964;2023-03-24T04:47:51;8.03;;;6.70;;
13872;SDS011;7006;51.494;11.964;2023-03-24T04:50:30;11.30;;;7.17;;
13872;SDS011;7006;51.494;11.964;2023-03-24T04:53:00;7.33;;;6.50;;
13872;SDS011;7006;51.494;11.964;2023-03-24T04:55:31;7.10;;;6.33;;
13872;SDS011;7006;51.494;11.964;2023-03-24T04:58:04;7.50;;;6.60;;
13872;SDS011;7006;51.494;11.964;2023-03-24T05:00:35;7.03;;;6.33;;
13872;SDS011;7006;51.494;11.964;2023-03-24T05:03:03;6.80;;;6.00;;
13872;SDS011;7006;51.494;11.964;2023-03-24T05:05:32;6.70;;;5.93;;
13872;SDS011;7006;51.494;11.964;2023-03-24T05:08:00;6.40;;;4.57;;
13872;SDS011;7006;51.494;11.964;2023-03-24T05:10:28;5.87;;;4.97;;
13872;SDS011;7006;51.494;11.964;2023-03-24T05:12:57;6.40;;;4.90;;
13872;SDS011;7006;51.494;11.964;2023-03-24T05:15:25;6.33;;;4.93;;
13872;SDS011;7006;51.494;11.964;2023-03-24T05:17:56;5.57;;;4.50;;
13872;SDS011;7006;51.494;11.964;2023-03-24T05:20:24;6.07;;;4.60;;
13872;SDS011;7006;51.494;11.964;2023-03-24T05:22:54;6.70;;;4.83;;
13872;SDS011;7006;51.494;11.964;2023-03-24T05:25:22;6.60;;;5.27;;
13872;SDS011;7006;51.494;11.964;2023-03-24T05:27:50;6.40;;;4.97;;
13872;SDS011;7006;51.494;11.964;2023-03-24T05:30:18;5.57;;;4.63;;
13872;SDS011;7006;51.494;11.964;2023-03-24T05:32:47;5.67;;;4.80;;
13872;SDS011;7006;51.494;11.964;2023-03-24T05:35:18;5.13;;;4.50;;
13872;SDS011;7006;51.494;11.964;2023-03-24T05:37:46;5.93;;;4.43;;
13872;SDS011;7006;51.494;11.964;2023-03-24T05:40:14;6.13;;;5.20;;
13872;SDS011;7006;51.494;11.964;2023-03-24T05:42:42;6.50;;;5.03;;
13872;SDS011;7006;51.494;11.964;2023-03-24T05:45:11;5.63;;;3.90;;
13872;SDS011;7006;51.494;11.964;2023-03-24T05:47:39;6.40;;;5.27;;
13872;SDS011;7006;51.494;11.964;2023-03-24T05:50:07;5.97;;;4.70;;
13872;SDS011;7006;51.494;11.964;2023-03-24T05:52:38;5.60;;;4.17;;
13872;SDS011;7006;51.494;11.964;2023-03-24T05:55:07;7.67;;;4.47;;
13872;SDS011;7006;51.494;11.964;2023-03-24T05:57:35;7.53;;;4.87;;
13872;SDS011;7006;51.494;11.964;2023-03-24T06:00:04;5.43;;;4.93;;
13872;SDS011;7006;51.494;11.964;2023-03-24T06:02:38;4.93;;;4.43;;
13872;SDS011;7006;51.494;11.964;2023-03-24T06:05:06;5.63;;;4.37;;
13872;SDS011;7006;51.494;11.964;2023-03-24T06:07:35;5.13;;;4.30;;
13872;SDS011;7006;51.494;11.964;2023-03-24T06:10:06;5.70;;;4.50;;
13872;SDS011;7006;51.494;11.964;2023-03-24T06:12:35;4.53;;;4.13;;
13872;SDS011;7006;51.494;11.964;2023-03-24T06:15:04;5.90;;;4.63;;
13872;SDS011;7006;51.494;11.964;2023-03-24T06:17:32;6.83;;;4.90;;
13872;SDS011;7006;51.494;11.964;2023-03-24T06:20:01;5.73;;;4.60;;
13872;SDS011;7006;51.494;11.964;2023-03-24T06:22:30;6.97;;;4.73;;
13872;SDS011;7006;51.494;11.964;2023-03-24T06:24:58;8.40;;;4.83;;
13872;SDS011;7006;51.494;11.964;2023-03-24T06:27:31;6.73;;;5.30;;
13872;SDS011;7006;51.494;11.964;2023-03-24T06:30:00;6.90;;;5.00;;
13872;SDS011;7006;51.494;11.964;2023-03-24T06:32:28;5.23;;;4.70;;
13872;SDS011;7006;51.494;11.964;2023-03-24T06:34:56;5.50;;;4.57;;
13872;SDS011;7006;51.494;11.964;2023-03-24T06:37:25;5.27;;;4.77;;
13872;SDS011;7006;51.494;11.964;2023-03-24T06:39:53;5.60;;;4.67;;
13872;SDS011;7006;51.494;11.964;2023-03-24T06:42:21;6.90;;;5.07;;
13872;SDS011;7006;51.494;11.964;2023-03-24T06:44:53;8.43;;;5.37;;
13872;SDS011;7006;51.494;11.964;2023-03-24T06:47:22;7.83;;;5.03;;
13872;SDS011;7006;51.494;11.964;2023-03-24T06:49:50;7.87;;;5.20;;
13872;SDS011;7006;51.494;11.964;2023-03-24T06:52:18;7.43;;;5.47;;
13872;SDS011;7006;51.494;11.964;2023-03-24T06:54:48;7.00;;;5.03;;
13872;SDS011;7006;51.494;11.964;2023-03-24T06:57:17;7.37;;;5.67;;
13872;SDS011;7006;51.494;11.964;2023-03-24T06:59:45;7.30;;;5.27;;
13872;SDS011;7006;51.494;11.964;2023-03-24T07:02:16;7.23;;;6.10;;
13872;SDS011;7006;51.494;11.964;2023-03-24T07:04:44;7.13;;;5.87;;
13872;SDS011;7006;51.494;11.964;2023-03-24T07:07:13;7.77;;;5.40;;
13872;SDS011;7006;51.494;11.964;2023-03-24T07:09:41;6.70;;;5.33;;
13872;SDS011;7006;51.494;11.964;2023-03-24T07:12:11;7.10;;;6.00;;
13872;SDS011;7006;51.494;11.964;2023-03-24T07:14:42;6.60;;;5.73;;
13872;SDS011;7006;51.494;11.964;2023-03-24T07:17:10;7.07;;;5.17;;
13872;SDS011;7006;51.494;11.964;2023-03-24T07:19:41;5.97;;;5.10;;
13872;SDS011;7006;51.494;11.964;2023-03-24T07:22:10;6.80;;;4.97;;
13872;SDS011;7006;51.494;11.964;2023-03-24T07:24:38;8.20;;;5.27;;
13872;SDS011;7006;51.494;11.964;2023-03-24T07:27:06;8.87;;;4.80;;
13872;SDS011;7006;51.494;11.964;2023-03-24T07:29:37;5.30;;;3.87;;
13872;SDS011;7006;51.494;11.964;2023-03-24T07:32:09;6.40;;;4.60;;
13872;SDS011;7006;51.494;11.964;2023-03-24T07:34:37;4.97;;;4.10;;
13872;SDS011;7006;51.494;11.964;2023-03-24T07:37:08;5.70;;;4.20;;
13872;SDS011;7006;51.494;11.964;2023-03-24T07:39:36;6.03;;;4.83;;
13872;SDS011;7006;51.494;11.964;2023-03-24T07:42:04;5.27;;;4.07;;
13872;SDS011;7006;51.494;11.964;2023-03-24T07:44:33;5.10;;;3.73;;
13872;SDS011;7006;51.494;11.964;2023-03-24T07:47:03;5.50;;;3.97;;
13872;SDS011;7006;51.494;11.964;2023-03-24T07:49:31;7.13;;;4.80;;
13872;SDS011;7006;51.494;11.964;2023-03-24T07:52:00;7.03;;;4.70;;
13872;SDS011;7006;51.494;11.964;2023-03-24T07:54:33;5.00;;;3.90;;
13872;SDS011;7006;51.494;11.964;2023-03-24T07:57:01;6.60;;;3.07;;
13872;SDS011;7006;51.494;11.964;2023-03-24T07:59:29;4.77;;;4.20;;
13872;SDS011;7006;51.494;11.964;2023-03-24T08:01:58;4.50;;;3.60;;
13872;SDS011;7006;51.494;11.964;2023-03-24T08:04:26;5.03;;;4.03;;
13872;SDS011;7006;51.494;11.964;2023-03-24T08:06:56;6.03;;;4.60;;
13872;SDS011;7006;51.494;11.964;2023-03-24T08:09:25;6.23;;;4.20;;
13872;SDS011;7006;51.494;11.964;2023-03-24T08:11:56;5.17;;;3.90;;
13872;SDS011;7006;51.494;11.964;2023-03-24T08:14:25;6.20;;;3.67;;
13872;SDS011;7006;51.494;11.964;2023-03-24T08:16:53;5.37;;;3.80;;
13872;SDS011;7006;51.494;11.964;2023-03-24T08:19:21;5.33;;;3.50;;
13872;SDS011;7006;51.494;11.964;2023-03-24T08:21:50;4.37;;;3.60;;
13872;SDS011;7006;51.494;11.964;2023-03-24T08:24:18;4.00;;;2.90;;
13872;SDS011;7006;51.494;11.964;2023-03-24T08:26:46;4.13;;;3.00;;
13872;SDS011;7006;51.494;11.964;2023-03-24T08:29:17;3.30;;;2.80;;
13872;SDS011;7006;51.494;11.964;2023-03-24T08:31:45;3.90;;;3.50;;
13872;SDS011;7006;51.494;11.964;2023-03-24T08:34:14;6.13;;;3.30;;
13872;SDS011;7006;51.494;11.964;2023-03-24T08:36:43;5.33;;;3.40;;
13872;SDS011;7006;51.494;11.964;2023-03-24T08:39:11;3.77;;;2.80;;
13872;SDS011;7006;51.494;11.964;2023-03-24T08:41:39;3.77;;;2.93;;
13872;SDS011;7006;51.494;11.964;2023-03-24T08:44:09;3.60;;;3.00;;
13872;SDS011;7006;51.494;11.964;2023-03-24T08:46:40;4.00;;;3.20;;
13872;SDS011;7006;51.494;11.964;2023-03-24T08:49:08;4.67;;;3.33;;
13872;SDS011;7006;51.494;11.964;2023-03-24T08:51:37;3.80;;;3.00;;
13872;SDS011;7006;51.494;11.964;2023-03-24T08:54:05;3.93;;;2.60;;
13872;SDS011;7006;51.494;11.964;2023-03-24T08:56:36;3.60;;;3.00;;
13872;SDS011;7006;51.494;11.964;2023-03-24T08:59:05;3.90;;;3.03;;
13872;SDS011;7006;51.494;11.964;2023-03-24T09:01:33;3.57;;;2.70;;
13872;SDS011;7006;51.494;11.964;2023-03-24T09:04:05;3.83;;;3.03;;
13872;SDS011;7006;51.494;11.964;2023-03-24T09:06:33;5.33;;;2.60;;
13872;SDS011;7006;51.494;11.964;2023-03-24T09:09:02;4.53;;;2.87;;
13872;SDS011;7006;51.494;11.964;2023-03-24T09:11:30;3.60;;;3.00;;
13872;SDS011;7006;51.494;11.964;2023-03-24T09:13:58;2.90;;;2.40;;
13872;SDS011;7006;51.494;11.964;2023-03-24T09:16:27;3.23;;;2.63;;
13872;SDS011;7006;51.494;11.964;2023-03-24T09:18:55;4.20;;;3.17;;
13872;SDS011;7006;51.494;11.964;2023-03-24T09:21:26;3.20;;;2.30;;
13872;SDS011;7006;51.494;11.964;2023-03-24T09:23:57;4.13;;;2.40;;
13872;SDS011;7006;51.494;11.964;2023-03-24T09:26:25;3.47;;;2.80;;
13872;SDS011;7006;51.494;11.964;2023-03-24T09:28:54;3.47;;;2.57;;
13872;SDS011;7006;51.494;11.964;2023-03-24T09:31:22;3.50;;;2.70;;
13872;SDS011;7006;51.494;11.964;2023-03-24T09:33:50;3.30;;;2.60;;
13872;SDS011;7006;51.494;11.964;2023-03-24T09:36:18;3.80;;;2.53;;
13872;SDS011;7006;51.494;11.964;2023-03-24T09:38:49;3.80;;;2.90;;
13872;SDS011;7006;51.494;11.964;2023-03-24T09:41:18;3.90;;;2.83;;
13872;SDS011;7006;51.494;11.964;2023-03-24T09:43:48;3.30;;;2.90;;
13872;SDS011;7006;51.494;11.964;2023-03-24T09:46:22;3.57;;;2.80;;
13872;SDS011;7006;51.494;11.964;2023-03-24T09:48:52;3.83;;;3.10;;
13872;SDS011;7006;51.494;11.964;2023-03-24T09:51:22;4.97;;;3.30;;
13872;SDS011;7006;51.494;11.964;2023-03-24T09:53:55;3.73;;;2.23;;
13872;SDS011;7006;51.494;11.964;2023-03-24T09:56:25;3.27;;;2.73;;
13872;SDS011;7006;51.494;11.964;2023-03-24T09:58:58;5.40;;;2.70;;
13872;SDS011;7006;51.494;11.964;2023-03-24T10:01:34;2.70;;;2.20;;
13872;SDS011;7006;51.494;11.964;2023-03-24T10:04:02;3.20;;;2.00;;
13872;SDS011;7006;51.494;11.964;2023-03-24T10:06:32;3.60;;;3.03;;
13872;SDS011;7006;51.494;11.964;2023-03-24T10:09:11;3.57;;;2.20;;
13872;SDS011;7006;51.494;11.964;2023-03-24T10:11:44;2.67;;;1.67;;
13872;SDS011;7006;51.494;11.964;2023-03-24T10:14:18;2.43;;;1.30;;
13872;SDS011;7006;51.494;11.964;2023-03-24T10:16:51;2.33;;;1.30;;
13872;SDS011;7006;51.494;11.964;2023-03-24T10:19:23;2.07;;;1.17;;
13872;SDS011;7006;51.494;11.964;2023-03-24T10:21:57;3.97;;;1.23;;
13872;SDS011;7006;51.494;11.964;2023-03-24T10:24:29;2.60;;;1.13;;
13872;SDS011;7006;51.494;11.964;2023-03-24T10:27:00;2.60;;;1.53;;
13872;SDS011;7006;51.494;11.964;2023-03-24T10:29:31;2.20;;;1.00;;
13872;SDS011;7006;51.494;11.964;2023-03-24T10:32:02;3.77;;;1.77;;
13872;SDS011;7006;51.494;11.964;2023-03-24T10:34:32;2.20;;;1.33;;
13872;SDS011;7006;51.494;11.964;2023-03-24T10:37:01;2.80;;;1.53;;
13872;SDS011;7006;51.494;11.964;2023-03-24T10:39:32;2.60;;;1.90;;
13872;SDS011;7006;51.494;11.964;2023-03-24T10:42:01;3.17;;;1.70;;
13872;SDS011;7006;51.494;11.964;2023-03-24T10:44:29;2.50;;;1.23;;
13872;SDS011;7006;51.494;11.964;2023-03-24T10:46:58;2.70;;;1.50;;
13872;SDS011;7006;51.494;11.964;2023-03-24T10:49:29;2.90;;;1.60;;
13872;SDS011;7006;51.494;11.964;2023-03-24T10:51:59;3.47;;;1.80;;
13872;SDS011;7006;51.494;11.964;2023-03-24T10:54:28;2.30;;;1.50;;
13872;SDS011;7006;51.494;11.964;2023-03-24T10:57:03;2.90;;;1.50;;
13872;SDS011;7006;51.494;11.964;2023-03-24T10:59:33;2.20;;;1.50;;
13872;SDS011;7006;51.494;11.964;2023-03-24T11:02:09;2.60;;;1.60;;
13872;SDS011;7006;51.494;11.964;2023-03-24T11:04:38;3.90;;;1.50;;
13872;SDS011;7006;51.494;11.964;2023-03-24T11:07:13;2.30;;;1.60;;
13872;SDS011;7006;51.494;11.964;2023-03-24T11:09:44;3.20;;;1.80;;
13872;SDS011;7006;51.494;11.964;2023-03-24T11:12:23;3.00;;;1.70;;
13872;SDS011;7006;51.494;11.964;2023-03-24T11:14:51;2.17;;;1.57;;
13872;SDS011;7006;51.494;11.964;2023-03-24T11:17:25;4.80;;;2.07;;
13872;SDS011;7006;51.494;11.964;2023-03-24T11:19:54;2.53;;;1.63;;
13872;SDS011;7006;51.494;11.964;2023-03-24T11:22:23;4.10;;;1.60;;
13872;SDS011;7006;51.494;11.964;2023-03-24T11:24:54;2.87;;;1.63;;
13872;SDS011;7006;51.494;11.964;2023-03-24T11:27:25;3.03;;;1.40;;
13872;SDS011;7006;51.494;11.964;2023-03-24T11:29:55;3.00;;;1.93;;
13872;SDS011;7006;51.494;11.964;2023-03-24T11:32:25;3.37;;;1.70;;
13872;SDS011;7006;51.494;11.964;2023-03-24T11:34:57;3.33;;;1.90;;
13872;SDS011;7006;51.494;11.964;2023-03-24T11:37:29;2.57;;;1.53;;
13872;SDS011;7006;51.494;11.964;2023-03-24T11:42:45;3.57;;;1.73;;
13872;SDS011;7006;51.494;11.964;2023-03-24T11:45:22;3.30;;;1.50;;
13872;SDS011;7006;51.494;11.964;2023-03-24T11:47:50;2.57;;;1.73;;
13872;SDS011;7006;51.494;11.964;2023-03-24T11:50:22;2.50;;;1.70;;
13872;SDS011;7006;51.494;11.964;2023-03-24T11:52:52;3.03;;;1.93;;
13872;SDS011;7006;51.494;11.964;2023-03-24T11:55:23;3.20;;;1.87;;
13872;SDS011;7006;51.494;11.964;2023-03-24T11:57:58;4.63;;;2.40;;
13872;SDS011;7006;51.494;11.964;2023-03-24T12:00:28;2.13;;;1.53;;
13872;SDS011;7006;51.494;11.964;2023-03-24T12:03:00;3.53;;;2.50;;
13872;SDS011;7006;51.494;11.964;2023-03-24T12:05:35;3.03;;;2.30;;
13872;SDS011;7006;51.494;11.964;2023-03-24T12:11:07;4.23;;;2.30;;
13872;SDS011;7006;51.494;11.964;2023-03-24T12:13:41;4.00;;;2.23;;
13872;SDS011;7006;51.494;11.964;2023-03-24T12:16:20;3.70;;;2.40;;
13872;SDS011;7006;51.494;11.964;2023-03-24T12:18:56;6.10;;;2.67;;
13872;SDS011;7006;51.494;11.964;2023-03-24T12:21:34;3.87;;;2.67;;
13872;SDS011;7006;51.494;11.964;2023-03-24T12:24:05;5.17;;;2.67;;
13872;SDS011;7006;51.494;11.964;2023-03-24T12:26:41;4.73;;;3.47;;
13872;SDS011;7006;51.494;11.964;2023-03-24T12:29:19;3.33;;;2.00;;
13872;SDS011;7006;51.494;11.964;2023-03-24T12:32:04;3.47;;;2.10;;
13872;SDS011;7006;51.494;11.964;2023-03-24T12:34:41;2.77;;;1.90;;
13872;SDS011;7006;51.494;11.964;2023-03-24T12:37:17;2.87;;;1.80;;
13872;SDS011;7006;51.494;11.964;2023-03-24T12:39:52;3.43;;;2.07;;
13872;SDS011;7006;51.494;11.964;2023-03-24T12:42:21;3.50;;;2.00;;
13872;SDS011;7006;51.494;11.964;2023-03-24T12:45:04;3.03;;;1.40;;
13872;SDS011;7006;51.494;11.964;2023-03-24T12:47:41;3.30;;;1.50;;
13872;SDS011;7006;51.494;11.964;2023-03-24T12:50:18;3.27;;;1.60;;
13872;SDS011;7006;51.494;11.964;2023-03-24T12:52:54;2.20;;;1.00;;
13872;SDS011;7006;51.494;11.964;2023-03-24T12:55:28;3.40;;;1.10;;
13872;SDS011;7006;51.494;11.964;2023-03-24T12:57:59;2.20;;;0.97;;
13872;SDS011;7006;51.494;11.964;2023-03-24T13:00:34;1.97;;;0.93;;
13872;SDS011;7006;51.494;11.964;2023-03-24T13:03:03;6.33;;;1.30;;
13872;SDS011;7006;51.494;11.964;2023-03-24T13:05:34;1.73;;;0.80;;
13872;SDS011;7006;51.494;11.964;2023-03-24T13:08:04;3.47;;;1.00;;
13872;SDS011;7006;51.494;11.964;2023-03-24T13:10:38;2.30;;;1.00;;
13872;SDS011;7006;51.494;11.964;2023-03-24T13:13:09;3.03;;;1.27;;
13872;SDS011;7006;51.494;11.964;2023-03-24T13:15:42;1.70;;;0.90;;
13872;SDS011;7006;51.494;11.964;2023-03-24T13:18:16;2.73;;;1.00;;
13872;SDS011;7006;51.494;11.964;2023-03-24T13:20:47;2.20;;;1.10;;
13872;SDS011;7006;51.494;11.964;2023-03-24T13:23:22;3.10;;;1.10;;
13872;SDS011;7006;51.494;11.964;2023-03-24T13:25:52;1.80;;;0.80;;
13872;SDS011;7006;51.494;11.964;2023-03-24T13:28:26;2.10;;;1.00;;
13872;SDS011;7006;51.494;11.964;2023-03-24T13:30:59;3.73;;;1.33;;
13872;SDS011;7006;51.494;11.964;2023-03-24T13:33:29;2.73;;;1.33;;
13872;SDS011;7006;51.494;11.964;2023-03-24T13:36:05;5.07;;;1.40;;
13872;SDS011;7006;51.494;11.964;2023-03-24T13:38:36;3.33;;;1.60;;
13872;SDS011;7006;51.494;11.964;2023-03-24T13:41:10;3.37;;;1.67;;
13872;SDS011;7006;51.494;11.964;2023-03-24T13:43:44;3.00;;;1.70;;
13872;SDS011;7006;51.494;11.964;2023-03-24T13:46:16;2.60;;;1.60;;
13872;SDS011;7006;51.494;11.964;2023-03-24T13:48:46;2.80;;;1.60;;
13872;SDS011;7006;51.494;11.964;2023-03-24T13:51:18;3.47;;;2.07;;
13872;SDS011;7006;51.494;11.964;2023-03-24T13:53:49;3.90;;;1.37;;
13872;SDS011;7006;51.494;11.964;2023-03-24T13:56:23;3.40;;;1.67;;
13872;SDS011;7006;51.494;11.964;2023-03-24T13:59:05;2.17;;;1.50;;
13872;SDS011;7006;51.494;11.964;2023-03-24T14:01:38;2.27;;;1.30;;
13872;SDS011;7006;51.494;11.964;2023-03-24T14:04:21;3.57;;;1.43;;
13872;SDS011;7006;51.494;11.964;2023-03-24T14:06:51;3.60;;;1.77;;
13872;SDS011;7006;51.494;11.964;2023-03-24T14:09:20;4.63;;;1.73;;
13872;SDS011;7006;51.494;11.964;2023-03-24T14:14:32;2.47;;;1.23;;
13872;SDS011;7006;51.494;11.964;2023-03-24T14:17:10;2.47;;;1.57;;
13872;SDS011;7006;51.494;11.964;2023-03-24T14:19:39;2.90;;;1.30;;
13872;SDS011;7006;51.494;11.964;2023-03-24T14:22:10;2.97;;;1.63;;
13872;SDS011;7006;51.494;11.964;2023-03-24T14:24:40;4.00;;;1.63;;
13872;SDS011;7006;51.494;11.964;2023-03-24T14:27:22;5.13;;;2.60;;
13872;SDS011;7006;51.494;11.964;2023-03-24T14:29:57;2.50;;;1.70;;
13872;SDS011;7006;51.494;11.964;2023-03-24T14:32:28;3.43;;;1.67;;
13872;SDS011;7006;51.494;11.964;2023-03-24T14:34:57;3.93;;;1.67;;
13872;SDS011;7006;51.494;11.964;2023-03-24T14:37:26;4.97;;;1.73;;
13872;SDS011;7006;51.494;11.964;2023-03-24T14:39:56;2.37;;;1.20;;
13872;SDS011;7006;51.494;11.964;2023-03-24T14:42:25;2.27;;;1.20;;
13872;SDS011;7006;51.494;11.964;2023-03-24T14:44:55;3.67;;;1.70;;
13872;SDS011;7006;51.494;11.964;2023-03-24T14:47:23;4.60;;;1.17;;
13872;SDS011;7006;51.494;11.964;2023-03-24T14:49:55;2.73;;;1.60;;
13872;SDS011;7006;51.494;11.964;2023-03-24T14:52:24;3.17;;;1.50;;
13872;SDS011;7006;51.494;11.964;2023-03-24T14:54:55;3.30;;;1.60;;
13872;SDS011;7006;51.494;11.964;2023-03-24T14:57:24;2.20;;;1.20;;
13872;SDS011;7006;51.494;11.964;2023-03-24T14:59:54;4.13;;;1.67;;
13872;SDS011;7006;51.494;11.964;2023-03-24T15:02:30;2.50;;;1.23;;
13872;SDS011;7006;51.494;11.964;2023-03-24T15:07:56;3.47;;;1.33;;
13872;SDS011;7006;51.494;11.964;2023-03-24T15:10:26;2.90;;;1.40;;
13872;SDS011;7006;51.494;11.964;2023-03-24T15:12:58;3.93;;;1.90;;
13872;SDS011;7006;51.494;11.964;2023-03-24T15:15:26;3.97;;;1.70;;
13872;SDS011;7006;51.494;11.964;2023-03-24T15:17:55;5.20;;;1.80;;
13872;SDS011;7006;51.494;11.964;2023-03-24T15:20:24;5.77;;;2.00;;
13872;SDS011;7006;51.494;11.964;2023-03-24T15:22:55;3.70;;;1.80;;
13872;SDS011;7006;51.494;11.964;2023-03-24T15:25:24;2.80;;;1.53;;
13872;SDS011;7006;51.494;11.964;2023-03-24T15:27:53;3.50;;;2.03;;
13872;SDS011;7006;51.494;11.964;2023-03-24T15:30:22;3.00;;;1.90;;
13872;SDS011;7006;51.494;11.964;2023-03-24T15:32:50;5.33;;;2.33;;
13872;SDS011;7006;51.494;11.964;2023-03-24T15:35:19;5.07;;;2.63;;